createdAt,value
2022-09-23T00:05:00.734Z,100702.01
2022-09-23T00:10:01.910Z,100696.98
2022-09-23T00:15:04.000Z,100693.45
2022-09-23T00:20:08.454Z,100691.05
2022-09-23T00:25:10.665Z,100690.45
2022-09-23T00:30:11.983Z,100691.83
2022-09-23T00:35:13.046Z,100689.15
2022-09-23T00:40:14.821Z,100689.35
2022-09-23T00:45:16.490Z,100686.00
2022-09-23T00:50:29.396Z,100683.49
2022-09-23T00:55:43.329Z,100687.66
2022-09-23T01:00:46.053Z,100691.83
2022-09-23T01:05:47.772Z,100684.93
2022-09-23T01:11:15.709Z,100685.59
2022-09-23T01:16:54.738Z,100686.39
2022-09-23T01:22:18.772Z,100683.45
2022-09-23T01:27:28.762Z,100678.03
2022-09-23T01:32:58.815Z,100674.39
2022-09-23T01:38:30.915Z,100675.68
2022-09-23T01:43:54.078Z,100673.82
2022-09-23T01:49:16.891Z,100680.40
2022-09-23T01:54:27.991Z,100679.00
2022-09-23T01:59:39.392Z,100674.74
2022-09-23T02:05:07.420Z,100676.32
2022-09-23T02:10:23.323Z,100677.66
2022-09-23T02:15:29.534Z,100674.02
2022-09-23T02:20:36.001Z,100673.29
2022-09-23T02:25:53.610Z,100674.05
2022-09-23T02:31:23.159Z,100671.59
2022-09-23T02:36:31.559Z,100667.30
2022-09-23T02:41:33.971Z,100667.85
2022-09-23T02:46:36.292Z,100662.68
2022-09-23T02:51:38.904Z,100663.07
2022-09-23T02:56:41.119Z,100662.05
2022-09-23T03:01:53.611Z,100655.45
2022-09-23T03:07:00.699Z,100651.27
2022-09-23T03:12:39.351Z,100650.97
2022-09-23T03:17:49.179Z,100654.95
2022-09-23T03:23:00.172Z,100648.27
2022-09-23T03:28:03.197Z,100650.48
2022-09-23T03:33:08.508Z,100646.98
2022-09-23T03:38:16.568Z,100644.09
2022-09-23T03:43:18.013Z,100646.62
2022-09-23T03:48:21.408Z,100646.16
2022-09-23T03:53:22.651Z,100645.25
2022-09-23T03:58:23.743Z,100647.69
2022-09-23T04:03:27.338Z,100636.61
2022-09-23T04:08:28.713Z,100641.86
2022-09-23T04:13:30.620Z,100635.48
2022-09-23T04:18:31.863Z,100633.34
2022-09-23T04:23:33.008Z,100634.85
2022-09-23T04:28:34.487Z,100632.17
2022-09-23T04:33:36.992Z,100629.13
2022-09-23T04:38:38.234Z,100630.89
2022-09-23T04:43:39.534Z,100630.07
2022-09-23T04:48:42.368Z,100624.73
2022-09-23T04:53:45.551Z,100621.84
2022-09-23T04:58:47.378Z,100626.95
2022-09-23T05:03:48.560Z,100625.75
2022-09-23T05:08:50.705Z,100626.10
2022-09-23T05:13:53.832Z,100624.27
2022-09-23T05:18:55.133Z,100622.45
2022-09-23T05:23:59.797Z,100623.19
2022-09-23T05:29:04.902Z,100623.05
2022-09-23T05:34:06.368Z,100623.48
2022-09-23T05:39:08.050Z,100630.40
2022-09-23T05:44:09.933Z,100640.32
2022-09-23T05:49:11.374Z,100637.66
2022-09-23T05:54:13.850Z,100634.98
2022-09-23T05:59:15.235Z,100628.38
2022-09-23T06:04:16.389Z,100635.27
2022-09-23T06:09:18.534Z,100641.78
2022-09-23T06:14:19.783Z,100636.29
2022-09-23T06:19:21.020Z,100633.35
2022-09-23T06:24:27.251Z,100632.97
2022-09-23T06:29:32.526Z,100630.91
2022-09-23T06:34:44.737Z,100641.55
2022-09-23T06:39:48.574Z,100643.23
2022-09-23T06:44:49.749Z,100649.59
2022-09-23T06:49:50.963Z,100647.08
2022-09-23T06:54:52.559Z,100642.04
2022-09-23T06:59:53.782Z,100642.97
2022-09-23T07:04:56.681Z,100642.95
2022-09-23T07:09:58.090Z,100647.01
2022-09-23T07:14:59.474Z,100645.89
2022-09-23T07:20:01.332Z,100649.08
2022-09-23T07:25:03.351Z,100648.45
2022-09-23T07:30:06.061Z,100644.11
2022-09-23T07:35:10.564Z,100643.34
2022-09-23T07:40:12.250Z,100637.89
2022-09-23T07:45:14.387Z,100641.17
2022-09-23T07:50:15.685Z,100636.38
2022-09-23T07:55:21.030Z,100640.84
2022-09-23T08:00:22.460Z,100636.06
2022-09-23T08:05:25.248Z,100632.20
2022-09-23T08:10:26.568Z,100629.95
2022-09-23T08:15:31.265Z,100629.77
2022-09-23T08:20:51.606Z,100629.39
2022-09-23T08:25:59.641Z,100623.64
2022-09-23T08:31:01.680Z,100625.27
2022-09-23T08:36:03.280Z,100626.06
2022-09-23T08:41:15.537Z,100627.01
2022-09-23T08:46:24.182Z,100621.33
2022-09-23T08:51:32.910Z,100618.98
2022-09-23T08:56:38.023Z,100616.23
2022-09-23T09:01:43.041Z,100620.39
2022-09-23T09:06:53.590Z,100614.75
2022-09-23T09:12:02.571Z,100613.08
2022-09-23T09:17:13.094Z,100614.40
2022-09-23T09:22:48.708Z,100610.61
2022-09-23T09:27:51.307Z,100608.90
2022-09-23T09:33:06.058Z,100596.30
2022-09-23T09:38:07.653Z,100577.15
2022-09-23T09:43:09.960Z,100578.98
2022-09-23T09:48:17.003Z,100581.07
2022-09-23T09:53:25.725Z,100584.18
2022-09-23T09:58:33.396Z,100586.77
2022-09-23T10:03:40.671Z,100588.41
2022-09-23T10:08:48.654Z,100582.27
2022-09-23T10:14:12.240Z,100576.48
2022-09-23T10:19:25.462Z,100569.11
2022-09-23T10:24:36.350Z,100561.88
2022-09-23T10:29:58.125Z,100558.13
2022-09-23T10:35:13.879Z,100552.38
2022-09-23T10:40:54.937Z,100553.29
2022-09-23T10:46:20.922Z,100555.34
2022-09-23T10:51:31.370Z,100550.92
2022-09-23T10:56:38.873Z,100548.45
2022-09-23T11:02:01.358Z,100545.40
2022-09-23T11:07:08.727Z,100543.55
2022-09-23T11:12:31.645Z,100542.46
2022-09-23T11:18:10.450Z,100540.72
2022-09-23T11:23:25.806Z,100539.13
2022-09-23T11:28:47.789Z,100535.86
2022-09-23T11:34:24.749Z,100535.34
2022-09-23T11:39:30.366Z,100531.27
2022-09-23T11:44:38.566Z,100529.25
2022-09-23T11:50:02.025Z,100531.10
2022-09-23T11:55:22.208Z,100529.76
2022-09-23T12:00:28.928Z,100535.10
2022-09-23T12:05:41.176Z,100530.49
2022-09-23T12:10:55.324Z,100529.70
2022-09-23T12:16:15.407Z,100524.10
2022-09-23T12:27:05.462Z,100513.45
2022-09-23T12:32:09.214Z,100511.27
2022-09-23T12:37:10.567Z,100507.92
2022-09-23T12:42:17.677Z,100506.85
2022-09-23T12:47:27.289Z,100510.80
2022-09-23T12:52:31.853Z,100507.66
2022-09-23T12:57:33.061Z,100501.81
2022-09-23T13:02:39.012Z,100502.55
2022-09-23T13:07:46.493Z,100496.68
2022-09-23T13:12:47.961Z,100496.15
2022-09-23T13:17:49.587Z,100489.27
2022-09-23T13:22:53.399Z,100486.07
2022-09-23T13:27:58.257Z,100481.77
2022-09-23T13:33:22.335Z,100475.21
2022-09-23T13:38:26.670Z,100466.20
2022-09-23T13:43:41.249Z,100462.27
2022-09-23T13:48:45.543Z,100461.04
2022-09-23T13:53:55.530Z,100455.56
2022-09-23T13:59:25.207Z,100447.98
2022-09-23T14:04:26.733Z,100444.05
2022-09-23T14:09:29.985Z,100440.90
2022-09-23T14:14:36.501Z,100438.10
2022-09-23T14:19:41.749Z,100429.20
2022-09-23T14:24:43.089Z,100426.19
2022-09-23T14:29:47.459Z,100412.53
2022-09-23T14:34:54.134Z,100410.59
2022-09-23T14:39:57.817Z,100408.81
2022-09-23T14:44:59.513Z,100404.67
2022-09-23T14:50:19.950Z,100403.40
2022-09-23T14:55:21.245Z,100402.32
2022-09-23T15:00:22.699Z,100404.02
2022-09-23T15:05:44.978Z,100399.50
2022-09-23T15:10:48.297Z,100401.62
2022-09-23T15:15:54.644Z,100398.39
2022-09-23T15:21:16.065Z,100391.85
2022-09-23T15:26:23.324Z,100390.09
2022-09-23T15:31:26.989Z,100387.70
2022-09-23T15:36:28.673Z,100386.51
2022-09-23T15:41:32.439Z,100385.33
2022-09-23T15:46:36.728Z,100384.15
2022-09-23T15:51:40.208Z,100378.65
2022-09-23T15:56:41.505Z,100379.80
2022-09-23T16:01:44.568Z,100377.35
2022-09-23T16:06:47.654Z,100376.01
2022-09-23T16:11:50.863Z,100374.52
2022-09-23T16:16:52.886Z,100376.86
2022-09-23T16:21:55.652Z,100372.38
2022-09-23T16:27:00.012Z,100368.61
2022-09-23T16:32:02.437Z,100366.79
2022-09-23T16:37:15.936Z,100368.58
2022-09-23T16:42:17.284Z,100370.67
2022-09-23T16:47:19.646Z,100372.88
2022-09-23T16:52:21.855Z,100372.41
2022-09-23T16:57:23.065Z,100367.48
2022-09-23T17:02:43.430Z,100361.09
2022-09-23T17:07:48.163Z,100356.21
2022-09-23T17:12:49.984Z,100356.74
2022-09-23T17:17:52.247Z,100352.75
2022-09-23T17:22:55.059Z,100351.56
2022-09-23T17:28:00.284Z,100345.31
2022-09-23T17:33:01.500Z,100348.75
2022-09-23T17:38:04.008Z,100349.80
2022-09-23T17:43:07.422Z,100350.31
2022-09-23T17:48:08.657Z,100351.23
2022-09-23T17:53:11.582Z,100346.73
2022-09-23T17:58:12.892Z,100348.06
2022-09-23T18:03:16.645Z,100349.13
2022-09-23T18:08:20.988Z,100349.80
2022-09-23T18:13:25.344Z,100352.92
2022-09-23T18:18:28.116Z,100348.61
2022-09-23T18:23:29.644Z,100349.33
2022-09-23T18:28:34.810Z,100353.13
2022-09-23T18:33:38.719Z,100353.77
2022-09-23T18:38:42.235Z,100356.59
2022-09-23T18:43:48.655Z,100356.10
2022-09-23T18:49:17.429Z,100358.14
2022-09-23T18:54:19.194Z,100351.84
2022-09-23T18:59:25.129Z,100350.58
2022-09-23T19:04:28.242Z,100348.58
2022-09-23T19:09:29.550Z,100351.22
2022-09-23T19:14:30.805Z,100348.24
2022-09-23T19:19:33.090Z,100351.23
2022-09-23T19:24:35.539Z,100355.97
2022-09-23T19:29:39.897Z,100353.52
2022-09-23T19:34:41.228Z,100349.30
2022-09-23T19:39:43.571Z,100357.02
2022-09-23T19:44:44.784Z,100361.23
2022-09-23T19:49:46.751Z,100363.60
2022-09-23T19:54:48.119Z,100363.73
2022-09-23T19:59:49.912Z,100361.41
2022-09-23T20:04:52.839Z,100358.09
2022-09-23T20:09:55.733Z,100347.73
2022-09-23T20:14:56.948Z,100345.20
2022-09-23T20:19:58.596Z,100335.24
2022-09-23T20:25:03.209Z,100329.74
2022-09-23T20:30:06.694Z,100329.19
2022-09-23T20:35:08.169Z,100325.39
2022-09-23T20:40:10.929Z,100326.24
2022-09-23T20:45:12.671Z,100328.29
2022-09-23T20:50:14.189Z,100332.48
2022-09-23T20:55:16.543Z,100333.60
2022-09-23T21:00:18.021Z,100333.30
2022-09-23T21:05:19.535Z,100332.64
2022-09-23T21:10:22.115Z,100333.69
2022-09-23T21:15:23.800Z,100334.80
2022-09-23T21:20:25.265Z,100338.81
2022-09-23T21:25:28.881Z,100336.37
2022-09-23T21:30:30.856Z,100333.64
2022-09-23T21:35:33.289Z,100327.39
2022-09-23T21:40:53.008Z,100324.41
2022-09-23T21:46:02.592Z,100323.00
2022-09-23T21:51:08.643Z,100325.16
2022-09-23T21:56:20.921Z,100325.50
2022-09-23T22:01:24.522Z,100322.89
2022-09-23T22:06:27.914Z,100320.98
2022-09-23T22:11:50.047Z,100324.45
2022-09-23T22:16:56.626Z,100328.27
2022-09-23T22:21:57.999Z,100325.46
2022-09-23T22:26:59.218Z,100322.94
2022-09-23T22:32:20.508Z,100325.33
2022-09-23T22:37:26.529Z,100321.84
2022-09-23T22:42:28.531Z,100320.77
2022-09-23T22:47:31.422Z,100316.90
2022-09-23T22:52:32.675Z,100316.02
2022-09-23T22:57:33.992Z,100310.80
2022-09-23T23:02:36.105Z,100308.80
2022-09-23T23:07:37.366Z,100306.14
2022-09-23T23:12:39.548Z,100304.36
2022-09-23T23:17:42.478Z,100300.75
2022-09-23T23:22:43.656Z,100297.96
2022-09-23T23:27:44.754Z,100298.04
2022-09-23T23:32:45.998Z,100298.23
2022-09-23T23:37:47.635Z,100299.86
2022-09-23T23:42:48.777Z,100296.17
2022-09-23T23:47:49.938Z,100292.38
2022-09-23T23:52:50.963Z,100294.09
2022-09-23T23:57:52.158Z,100295.02
